Crew | Aerofun Virtual



 METAR AND TAF INFORMATION
METAR FOR GEML
ADDS - METARS form results

(0826 UTC 22 July 2019)
Data provider http://aviationweather.gov/metar/data/
 
METAR text: GEML 220800Z 08007KT 050V110 5000 BR FEW004 SCT010 BKN020 26/23 Q1018
Conditions at: GEML (MELILLA , ES) observed 0800 UTC 22 July 2019
Temperature: 26.0°C (79°F)
Dewpoint: 23.0°C (73°F) [RH = 84%]
Pressure (altimeter): 30.06 inches Hg (1018.0 mb)
Winds: from the E (80 degrees) at 8 MPH (7 knots; 3.6 m/s)
Visibility: 3 miles ( 5 km)
Ceiling: 2000 feet AGL
Clouds: few clouds at 400 feet AGL
scattered clouds at 1000 feet AGL
broken clouds at 2000 feet AGL
Weather: BR  (mist)

METAR text: GEML 220730Z 10006KT 060V140 5000 BR FEW004 SCT010 BKN020 26/23 Q1018
Conditions at: GEML (MELILLA , ES) observed 0730 UTC 22 July 2019
Temperature: 26.0°C (79°F)
Dewpoint: 23.0°C (73°F) [RH = 84%]
Pressure (altimeter): 30.06 inches Hg (1018.0 mb)
Winds: from the E (100 degrees) at 7 MPH (6 knots; 3.1 m/s)
Visibility: 3 miles ( 5 km)
Ceiling: 2000 feet AGL
Clouds: few clouds at 400 feet AGL
scattered clouds at 1000 feet AGL
broken clouds at 2000 feet AGL
Weather: BR  (mist)

Forecast for: AMD
Text: TAF AMD GEML 220519Z 2205/2303 05006KT 9999 BKN020 TX28/2215Z TN24/2205Z
Forecast period: 0500 UTC 22 July 2019 to 0300 UTC 23 July 2019
Forecast type: FROM: standard forecast or significant change
Winds: from the NE (50 degrees) at 7 MPH (6 knots; 3.1 m/s)
Visibility: 6 or more miles 10+ km)
Ceiling: 2000 feet AGL
Clouds: broken clouds at 2000 feet AGL
Weather: no significant weather forecast for this period
Text: TEMPO 2205/2213 SCT008 BKN012
Forecast period: 0500 to 1300 UTC 22 July 2019
Forecast type: TEMPORARY: The following changes expected for less than half the time period
Visibility: missing
Ceiling: 1200 feet AGL
Clouds: scattered clouds at 800 feet AGL
broken clouds at 1200 feet AGL
Weather: no significant weather forecast for this period
Text: PROB40
Forecast period: 0500 to 0900 UTC 22 July 2019
Forecast type: TEMPORARY: The following changes expected for less than half the time period
Visibility: 2.49 miles (4.01 km)
Ceiling: 400 feet AGL
Clouds: broken clouds at 400 feet AGL
overcast cloud deck at 1000 feet AGL
Weather: BR  (mist)

 AIRPORT MAP

 RUNWAY INFORMATION
Runway 15 Runway length 4685 ft Runway width 148 ft
Runway elevation 156 ft Runway displaced threshold 755 ft Runway heading 146
Runway 33 Runway length 4685 ft Runway width 148 ft
Runway elevation 133 ft Runway displaced threshold 0 ft Runway heading 326

 AIRPORT FREQUENCIES
Type GND Name GND Frequency 121.7 MHZ
Type TWR Name TWR Frequency 118.5 MHZ

 AIRPORT NEAR NAVIGATION AIDS
Type VOR-DME Name Melilla Frequency 114250 KHZ
Type DME Name Melilla Frequency 117400 KHZ